Time;durP1;ratioP1;P1;durP2;ratioP2;P2;SDS_P1;SDS_P2;PMS_P1;PMS_P2;Temp;Humidity;BMP_temperature;BMP_pressure;BME280_temperature;BME280_humidity;BME280_pressure;Samples;Min_cycle;Max_cycle;Signal;HPM_P1;HPM_P2
2022/01/30 00:00:44;;;;;;;12.55;7.97;;;;;;;-2.16;62.19;95697.97;5067059;28;20031;-62
2022/01/30 00:03:10;;;;;;;12.73;6.15;;;;;;;-2.16;61.94;95672.69;5049515;28;20073;-61
2022/01/30 00:05:35;;;;;;;9.02;6.85;;;;;;;-2.16;61.84;95692.91;5068041;28;20032;-64
2022/01/30 00:08:01;;;;;;;13.95;7.03;;;;;;;-2.35;62.47;95666.00;5068051;28;20097;-63
2022/01/30 00:10:28;;;;;;;14.02;7.80;;;;;;;-2.08;62.10;95691.22;5067954;28;20032;-62
2022/01/30 00:12:57;;;;;;;10.98;7.00;;;;;;;-2.13;62.34;95687.84;5067013;28;20127;-61
2022/01/30 00:23:38;;;;;;;12.00;7.00;;;;;;;-2.09;61.47;95691.22;5024842;28;20033;-63
2022/01/30 00:26:06;;;;;;;7.68;5.30;;;;;;;-2.07;61.71;95672.66;5024404;28;20068;-61
2022/01/30 00:28:33;;;;;;;8.07;5.50;;;;;;;-2.13;61.43;95672.69;5024176;28;20034;-62
2022/01/30 00:30:58;;;;;;;6.68;4.95;;;;;;;-2.16;61.75;95665.13;5025042;28;20056;-62
2022/01/30 00:33:24;;;;;;;7.47;4.97;;;;;;;-2.11;61.77;95660.88;5025086;28;20119;-63
2022/01/30 00:35:50;;;;;;;12.07;7.20;;;;;;;-2.34;61.23;95633.16;5025160;28;20022;-63
2022/01/30 00:38:18;;;;;;;8.90;6.15;;;;;;;-2.26;61.97;95663.47;5024510;28;20053;-62
2022/01/30 00:40:48;;;;;;;11.63;6.88;;;;;;;-2.51;62.35;95622.25;5024825;28;20113;-64
2022/01/30 00:43:15;;;;;;;12.25;7.20;;;;;;;-2.33;62.27;95661.78;5024771;28;20124;-63
2022/01/30 00:45:42;;;;;;;12.68;7.60;;;;;;;-2.37;62.94;95660.97;5024878;28;20045;-61
2022/01/30 00:48:07;;;;;;;13.70;6.82;;;;;;;-2.53;62.85;95634.06;5024659;28;20041;-61
2022/01/30 00:50:34;;;;;;;12.77;7.45;;;;;;;-2.34;63.23;95658.44;5025008;28;20041;-63
2022/01/30 00:53:00;;;;;;;12.57;7.00;;;;;;;-2.60;63.00;95623.13;5066080;28;20090;-64
2022/01/30 00:55:27;;;;;;;10.48;5.47;;;;;;;-2.26;62.37;95645.78;5067202;28;20063;-63
2022/01/30 00:57:53;;;;;;;11.65;6.25;;;;;;;-2.35;62.68;95644.09;5067036;28;20032;-65
2022/01/30 01:00:19;;;;;;;10.75;6.90;;;;;;;-2.51;62.75;95620.59;5066926;28;20063;-63
2022/01/30 01:02:46;;;;;;;10.85;5.07;;;;;;;-2.66;62.58;95601.25;5067502;28;20032;-65
2022/01/30 01:05:12;;;;;;;9.45;6.32;;;;;;;-2.47;63.11;95627.31;5067416;28;20024;-65
2022/01/30 01:07:43;;;;;;;11.70;7.60;;;;;;;-2.76;63.08;95592.00;5071260;28;20127;-62
2022/01/30 01:10:16;;;;;;;10.70;6.10;;;;;;;-2.61;63.83;95622.31;5070949;28;20029;-63
2022/01/30 01:25:59;;;;;;;9.65;6.55;;;;;;;-2.52;63.14;95596.19;5070546;28;20025;-61
2022/01/30 01:28:25;;;;;;;8.18;5.25;;;;;;;-2.46;62.58;95598.69;5070710;28;20027;-62
2022/01/30 01:30:51;;;;;;;11.40;6.10;;;;;;;-2.65;63.44;95590.31;5070710;28;20036;-63
2022/01/30 01:33:18;;;;;;;12.20;6.55;;;;;;;-2.81;63.89;95579.41;5070655;28;20407;-63
2022/01/30 01:35:43;;;;;;;10.88;6.65;;;;;;;-2.87;64.18;95571.88;5070700;28;20040;-63
2022/01/30 01:38:12;;;;;;;10.65;6.80;;;;;;;-2.88;64.01;95549.16;5070222;28;20498;-62
2022/01/30 01:40:49;;;;;;;8.60;4.90;;;;;;;-2.69;63.57;95576.03;5070662;28;20388;-64
2022/01/30 01:43:15;;;;;;;9.68;7.25;;;;;;;-2.80;64.42;95572.69;5070183;28;20076;-62
2022/01/30 01:45:41;;;;;;;12.10;6.55;;;;;;;-2.84;64.50;95561.72;5070309;28;20208;-63
2022/01/30 01:48:12;;;;;;;15.40;8.88;;;;;;;-2.94;64.63;95562.59;5070391;28;20058;-61
2022/01/30 01:50:39;;;;;;;9.80;7.57;;;;;;;-2.96;64.78;95554.19;5070330;28;20028;-63
2022/01/30 01:53:11;;;;;;;12.23;7.90;;;;;;;-3.01;64.69;95556.72;5070160;28;20107;-63
2022/01/30 01:55:37;;;;;;;16.60;10.20;;;;;;;-3.35;65.85;95523.13;5070355;28;20028;-62
2022/01/30 01:58:04;;;;;;;18.27;12.30;;;;;;;-3.02;66.13;95557.56;5070012;28;20029;-62
2022/01/30 02:00:31;;;;;;;27.52;15.43;;;;;;;-3.05;66.92;95549.16;5069679;28;20017;-63
2022/01/30 02:02:56;;;;;;;25.65;15.25;;;;;;;-3.24;67.47;95503.78;5070137;28;20025;-65
2022/01/30 02:05:23;;;;;;;26.83;17.00;;;;;;;-3.09;67.38;95540.75;5070180;28;20032;-63
2022/01/30 02:10:47;;;;;;;30.58;17.63;;;;;;;-3.14;67.97;95543.28;5070441;28;20083;-63
2022/01/30 02:24:47;;;;;;;25.17;16.38;;;;;;;-3.46;69.35;95540.81;5069571;28;20273;-62
2022/01/30 02:27:02;;;;;;;31.23;16.13;;;;;;;-3.48;69.19;95536.59;5068209;28;20048;-62
2022/01/30 02:29:29;;;;;;;24.52;14.60;;;;;;;-3.40;68.97;95524.81;5069456;28;20094;-63
2022/01/30 02:31:58;;;;;;;27.52;15.70;;;;;;;-3.40;68.50;95513.03;5069201;28;20017;-64
2022/01/30 02:34:28;;;;;;;25.00;14.18;;;;;;;-3.42;68.87;95521.47;5069177;28;20514;-63
2022/01/30 02:36:54;;;;;;;23.08;11.90;;;;;;;-3.47;68.16;95520.63;5069079;28;20031;-64
2022/01/30 02:39:21;;;;;;;25.67;13.90;;;;;;;-3.60;68.56;95518.09;5051711;28;20025;-63
2022/01/30 02:41:47;;;;;;;17.98;11.30;;;;;;;-3.61;67.72;95498.75;5069291;28;20036;-63
2022/01/30 02:44:32;;;;;;;20.70;10.77;;;;;;;-3.49;66.79;95494.56;5051120;28;20053;-62
2022/01/30 02:47:02;;;;;;;17.63;8.27;;;;;;;-3.66;66.25;95457.59;5069367;28;20041;-63
2022/01/30 02:49:56;;;;;;;17.23;8.85;;;;;;;-3.37;66.12;95479.44;5068851;28;20492;-64
2022/01/30 02:52:22;;;;;;;15.35;9.15;;;;;;;-3.37;65.88;95494.56;5069312;28;20077;-62
2022/01/30 02:54:47;;;;;;;14.38;9.20;;;;;;;-3.44;65.79;95492.88;5050286;28;20037;-62
2022/01/30 02:57:13;;;;;;;13.60;8.77;;;;;;;-3.48;66.54;95497.09;5068652;28;20040;-63
2022/01/30 02:59:39;;;;;;;13.32;7.45;;;;;;;-3.58;65.60;95460.94;5068790;28;20093;-66
2022/01/30 03:02:05;;;;;;;12.95;7.68;;;;;;;-3.38;66.05;95486.16;5068362;28;20027;-63
2022/01/30 03:04:30;;;;;;;11.20;7.00;;;;;;;-3.69;66.19;95442.47;5068854;28;20516;-65
2022/01/30 03:06:56;;;;;;;11.35;6.70;;;;;;;-3.47;65.97;95473.56;5068567;28;20115;-64
2022/01/30 03:09:21;;;;;;;13.90;7.57;;;;;;;-3.51;66.25;95477.78;5068584;28;20093;-63
2022/01/30 03:11:47;;;;;;;14.90;7.15;;;;;;;-3.79;66.07;95430.72;5050189;28;20029;-62
2022/01/30 03:14:12;;;;;;;10.32;6.30;;;;;;;-3.40;65.66;95474.38;5067790;28;20474;-64
2022/01/30 03:16:38;;;;;;;13.32;6.47;;;;;;;-3.29;65.94;95470.16;5068599;28;20077;-63
2022/01/30 03:19:03;;;;;;;13.07;7.45;;;;;;;-3.27;65.35;95486.13;5068513;28;20067;-63
2022/01/30 03:21:29;;;;;;;9.50;6.43;;;;;;;-3.24;65.26;95477.72;5068436;28;20024;-62
2022/01/30 03:23:54;;;;;;;8.43;5.38;;;;;;;-3.30;64.72;95444.94;5068299;28;20032;-63
2022/01/30 03:26:20;;;;;;;14.85;7.35;;;;;;;-3.15;65.15;95478.56;5067954;28;20056;-66
2022/01/30 03:28:48;;;;;;;12.85;6.78;;;;;;;-3.31;65.24;95464.31;5049426;28;20036;-61
2022/01/30 03:31:14;;;;;;;12.30;6.07;;;;;;;-3.32;65.41;95475.22;5033997;28;20064;-65
2022/01/30 03:33:40;;;;;;;13.90;9.20;;;;;;;-3.45;66.17;95476.91;5048127;28;20029;-64
2022/01/30 03:36:06;;;;;;;21.20;12.30;;;;;;;-3.55;66.69;95480.28;5047614;28;20036;-65
2022/01/30 03:38:32;;;;;;;21.65;13.30;;;;;;;-3.52;67.57;95493.72;5048277;28;20104;-63
2022/01/30 03:40:58;;;;;;;25.42;15.90;;;;;;;-3.45;67.38;95469.34;5047971;28;20033;-62
2022/01/30 03:43:24;;;;;;;30.20;17.85;;;;;;;-3.46;67.55;95479.44;5047731;28;20036;-62
2022/01/30 03:45:50;;;;;;;27.33;16.15;;;;;;;-3.42;67.64;95496.25;5047602;28;20044;-61
2022/01/30 03:48:16;;;;;;;26.75;16.77;;;;;;;-3.39;67.75;95486.16;5047661;28;20136;-61
2022/01/30 03:50:42;;;;;;;30.45;18.15;;;;;;;-3.41;67.74;95496.25;5047737;28;20468;-63
2022/01/30 03:53:08;;;;;;;30.88;19.08;;;;;;;-3.60;68.56;95481.97;5047645;28;20043;-64
2022/01/30 03:55:34;;;;;;;27.95;18.00;;;;;;;-3.73;68.68;95468.53;5047755;28;20029;-62
2022/01/30 03:58:00;;;;;;;24.13;12.88;;;;;;;-3.57;67.44;95462.66;5047178;28;20037;-63
2022/01/30 04:00:25;;;;;;;20.13;12.10;;;;;;;-3.90;66.97;95424.03;5046768;28;20033;-65
2022/01/30 04:02:51;;;;;;;12.45;8.95;;;;;;;-3.68;66.68;95454.25;5029195;28;20627;-61
2022/01/30 04:05:17;;;;;;;11.52;7.30;;;;;;;-4.00;66.26;95392.13;5047818;28;20029;-62
2022/01/30 04:07:45;;;;;;;12.52;7.80;;;;;;;-3.56;66.22;95459.28;5047589;28;20067;-61
2022/01/30 04:10:11;;;;;;;12.93;7.40;;;;;;;-3.59;66.30;95464.34;5047646;28;20029;-62
2022/01/30 04:12:37;;;;;;;12.85;7.65;;;;;;;-3.62;66.83;95454.25;5046747;28;20416;-61
2022/01/30 04:15:03;;;;;;;12.30;7.43;;;;;;;-3.72;66.80;95455.09;5047538;28;20036;-63
2022/01/30 04:17:29;;;;;;;13.70;8.35;;;;;;;-3.97;67.45;95429.88;5047569;28;20421;-62
2022/01/30 04:19:54;;;;;;;13.27;9.07;;;;;;;-3.86;67.24;95436.63;5047525;28;20029;-61
2022/01/30 04:22:20;;;;;;;7.53;4.07;;;;;;;-3.65;66.53;95423.16;5047439;28;20075;-61
2022/01/30 04:24:45;;;;;;;15.90;6.43;;;;;;;-3.83;66.88;95416.47;5047002;28;20029;-62
2022/01/30 04:27:11;;;;;;;15.55;8.15;;;;;;;-4.00;66.97;95386.22;5047509;28;20098;-62
2022/01/30 04:29:36;;;;;;;14.20;8.00;;;;;;;-3.86;67.09;95426.53;5047213;28;20036;-62
2022/01/30 04:32:03;;;;;;;16.10;9.95;;;;;;;-3.91;67.07;95411.44;5047718;28;20980;-61
2022/01/30 04:34:29;;;;;;;16.50;8.57;;;;;;;-4.44;67.08;95320.78;5047639;28;20100;-61
2022/01/30 04:37:11;;;;;;;18.85;10.48;;;;;;;-3.94;67.89;95409.72;5046640;28;20503;-64
2022/01/30 04:56:46;;;;;;;18.33;10.23;;;;;;;-3.74;67.32;95413.91;4989728;28;20073;-62
2022/01/30 05:01:38;;;;;;;24.00;16.35;;;;;;;-4.05;68.80;95424.00;4988802;28;20034;-64
2022/01/30 05:09:20;;;;;;;25.50;13.82;;;;;;;-3.74;68.24;95394.63;4989180;28;20725;-62
2022/01/30 05:11:45;;;;;;;22.23;12.98;;;;;;;-3.60;67.42;95374.41;4989039;28;20035;-62
2022/01/30 05:14:13;;;;;;;23.15;13.00;;;;;;;-3.45;66.92;95368.50;4988412;28;20539;-62
2022/01/30 05:16:39;;;;;;;17.40;11.10;;;;;;;-3.17;65.61;95359.13;4988901;28;20046;-64
2022/01/30 05:19:04;;;;;;;18.38;11.48;;;;;;;-3.06;65.31;95354.06;4989188;28;20034;-62
2022/01/30 05:21:30;;;;;;;20.60;13.80;;;;;;;-2.99;65.11;95337.19;5002085;28;20041;-63
2022/01/30 05:23:56;;;;;;;21.85;12.80;;;;;;;-3.00;64.32;95323.75;5050840;28;20111;-62
2022/01/30 05:26:25;;;;;;;22.08;12.00;;;;;;;-3.36;63.80;95265.06;5050143;28;20095;-61
2022/01/30 05:28:51;;;;;;;20.38;11.25;;;;;;;-3.24;64.68;95268.38;5050390;28;20547;-63
2022/01/30 05:31:17;;;;;;;23.25;12.98;;;;;;;-2.88;64.29;95320.31;5050485;28;20023;-64
2022/01/30 05:33:43;;;;;;;17.67;11.02;;;;;;;-3.15;63.87;95294.41;5050744;28;20410;-63
2022/01/30 05:36:09;;;;;;;26.67;13.80;;;;;;;-2.86;64.00;95345.53;5050093;28;20578;-63
2022/01/30 05:38:35;;;;;;;18.90;13.43;;;;;;;-2.77;64.04;95336.22;5050504;28;20111;-64
2022/01/30 05:41:01;;;;;;;25.15;16.23;;;;;;;-3.04;65.21;95316.19;5050198;28;20113;-62
2022/01/30 05:43:29;;;;;;;25.25;16.52;;;;;;;-2.99;66.09;95370.81;5050570;28;20040;-63
2022/01/30 05:46:06;;;;;;;25.67;16.92;;;;;;;-2.98;66.03;95385.13;5060305;28;20029;-62
2022/01/30 05:48:32;;;;;;;21.10;11.02;;;;;;;-2.83;64.69;95364.03;5065169;28;20044;-61
2022/01/30 05:50:58;;;;;;;20.73;13.57;;;;;;;-2.86;64.10;95327.88;5068891;28;20020;-62
2022/01/30 05:53:23;;;;;;;22.77;14.45;;;;;;;-2.58;64.46;95374.81;5069247;28;20021;-64
2022/01/30 05:55:50;;;;;;;21.10;12.88;;;;;;;-2.58;63.38;95349.56;5069792;28;20086;-61
2022/01/30 05:58:16;;;;;;;16.38;9.95;;;;;;;-2.36;62.75;95357.00;5069876;28;20034;-62
2022/01/30 06:00:41;;;;;;;19.50;11.15;;;;;;;-2.32;62.50;95348.53;5051163;28;20119;-62
2022/01/30 06:03:07;;;;;;;20.58;11.23;;;;;;;-2.32;63.08;95337.63;5070464;28;20029;-62
2022/01/30 06:05:32;;;;;;;16.80;9.60;;;;;;;-2.93;62.19;95253.06;5070253;28;20040;-62
2022/01/30 06:08:08;;;;;;;15.45;10.05;;;;;;;-2.38;62.92;95346.06;5070258;28;20032;-64
2022/01/30 06:10:33;;;;;;;18.98;12.50;;;;;;;-2.32;63.72;95335.09;5070058;28;20036;-63
2022/01/30 06:12:59;;;;;;;21.73;12.40;;;;;;;-2.35;63.13;95305.63;5069538;28;20051;-62
2022/01/30 06:15:24;;;;;;;16.10;10.02;;;;;;;-2.73;62.92;95284.03;5070327;28;20025;-62
2022/01/30 06:17:50;;;;;;;19.88;12.02;;;;;;;-2.79;63.91;95299.22;5070038;28;20451;-64
2022/01/30 06:20:15;;;;;;;19.95;12.07;;;;;;;-2.68;63.74;95299.97;5069960;28;20028;-63
2022/01/30 06:22:41;;;;;;;25.15;11.73;;;;;;;-2.39;62.51;95288.84;5070011;28;20028;-62
2022/01/30 06:25:08;;;;;;;20.27;11.90;;;;;;;-2.37;63.11;95293.88;5069147;28;20544;-60
2022/01/30 06:27:33;;;;;;;21.83;11.68;;;;;;;-2.28;62.59;95297.16;5069742;28;20850;-62
2022/01/30 06:29:59;;;;;;;21.38;12.52;;;;;;;-2.42;62.28;95266.94;5069680;28;20024;-64
2022/01/30 06:32:24;;;;;;;21.35;13.80;;;;;;;-2.08;62.27;95299.50;5069868;28;20543;-60
2022/01/30 06:34:50;;;;;;;18.85;11.85;;;;;;;-1.88;60.87;95295.94;5069779;28;20028;-61
2022/01/30 06:37:15;;;;;;;20.52;11.32;;;;;;;-1.75;60.94;95282.31;5069232;28;20047;-61
2022/01/30 06:39:41;;;;;;;18.38;10.27;;;;;;;-1.68;60.37;95273.81;5069554;28;20537;-62
2022/01/30 06:42:07;;;;;;;19.35;11.80;;;;;;;-1.59;60.31;95283.00;5069690;28;20029;-61
2022/01/30 06:44:32;;;;;;;20.80;11.35;;;;;;;-1.48;59.98;95303.09;5069254;28;20550;-63
2022/01/30 06:46:58;;;;;;;19.70;11.30;;;;;;;-1.54;60.58;95323.38;5069471;28;20108;-63
2022/01/30 06:49:23;;;;;;;18.27;11.60;;;;;;;-1.69;60.70;95335.34;5069098;28;20400;-61
2022/01/30 06:51:49;;;;;;;24.63;12.57;;;;;;;-1.57;61.35;95343.69;5069184;28;20712;-62
2022/01/30 06:54:14;;;;;;;24.10;12.98;;;;;;;-1.22;60.28;95317.13;5068930;28;20447;-62
2022/01/30 06:56:40;;;;;;;18.65;11.52;;;;;;;-1.11;59.42;95310.25;5068920;28;20040;-63
2022/01/30 06:59:05;;;;;;;18.27;12.07;;;;;;;-1.00;59.33;95298.28;5069107;28;20020;-64
2022/01/30 07:01:30;;;;;;;19.13;11.82;;;;;;;-0.76;58.44;95288.66;5068707;28;20510;-64
2022/01/30 07:03:56;;;;;;;20.33;13.48;;;;;;;-0.72;58.17;95295.38;5068868;28;20028;-63
2022/01/30 07:06:22;;;;;;;20.90;11.85;;;;;;;-0.79;56.55;95236.38;5068924;28;20036;-62
2022/01/30 07:08:48;;;;;;;17.73;12.45;;;;;;;-0.48;57.18;95285.72;5069059;28;20033;-64
2022/01/30 07:11:15;;;;;;;20.27;11.65;;;;;;;-0.68;57.13;95261.53;5068590;28;20107;-61
2022/01/30 07:13:43;;;;;;;20.80;11.77;;;;;;;-0.53;57.49;95285.78;5061979;28;20056;-62
2022/01/30 07:16:08;;;;;;;18.83;11.32;;;;;;;-0.58;57.38;95283.31;5065475;28;20040;-63
2022/01/30 07:18:34;;;;;;;22.75;11.75;;;;;;;-0.75;56.64;95272.63;5063599;28;20032;-63
2022/01/30 07:20:59;;;;;;;17.98;11.75;;;;;;;-0.65;56.76;95291.88;5063656;28;20044;-62
2022/01/30 07:23:25;;;;;;;19.80;12.25;;;;;;;-0.66;56.01;95286.81;5064807;28;20020;-64
2022/01/30 07:25:50;;;;;;;19.20;10.93;;;;;;;-0.61;55.85;95273.25;5061095;28;20039;-65
2022/01/30 07:28:16;;;;;;;18.15;11.38;;;;;;;-0.21;55.44;95303.00;5065069;28;20017;-62
2022/01/30 07:30:41;;;;;;;17.20;10.75;;;;;;;-0.04;54.75;95304.44;5062177;28;20029;-63
2022/01/30 07:33:07;;;;;;;21.63;11.90;;;;;;;-0.24;54.53;95262.50;5065436;28;20031;-61
2022/01/30 07:35:36;;;;;;;22.15;11.90;;;;;;;-0.09;54.58;95294.34;5063062;28;20037;-61
2022/01/30 07:38:02;;;;;;;18.20;10.02;;;;;;;0.05;54.52;95305.97;5064277;28;20054;-62
2022/01/30 07:40:27;;;;;;;20.65;11.35;;;;;;;0.21;54.76;95319.22;5060956;28;20036;-62
2022/01/30 07:42:53;;;;;;;16.90;10.35;;;;;;;0.20;53.78;95292.16;5064446;28;20514;-61
2022/01/30 07:45:18;;;;;;;16.95;11.43;;;;;;;0.51;53.28;95310.22;5061909;28;20035;-63
2022/01/30 07:47:44;;;;;;;16.58;10.90;;;;;;;0.70;52.59;95291.19;5065121;28;20077;-61
2022/01/30 07:50:09;;;;;;;19.15;11.30;;;;;;;0.40;52.92;95284.22;5061626;28;20048;-62
2022/01/30 07:52:35;;;;;;;20.33;11.43;;;;;;;0.27;53.37;95306.44;5064867;28;20459;-63
2022/01/30 07:55:01;;;;;;;21.10;11.20;;;;;;;0.54;52.92;95283.06;5063032;28;20028;-62
2022/01/30 07:57:26;;;;;;;20.27;12.07;;;;;;;0.89;52.09;95280.69;5046246;28;20066;-63
2022/01/30 07:59:52;;;;;;;19.25;11.52;;;;;;;0.72;52.64;95275.94;5064675;28;20028;-63
2022/01/30 08:02:17;;;;;;;23.00;13.25;;;;;;;0.88;52.10;95256.97;5059496;28;20163;-63
2022/01/30 08:04:43;;;;;;;21.88;13.50;;;;;;;0.84;52.50;95264.72;5064676;28;20037;-62
2022/01/30 08:07:08;;;;;;;17.15;11.57;;;;;;;0.75;52.43;95260.66;5061207;28;20032;-64
2022/01/30 08:09:34;;;;;;;18.75;12.65;;;;;;;1.06;52.06;95265.91;5064445;28;20024;-62
2022/01/30 08:11:59;;;;;;;19.45;12.25;;;;;;;1.34;50.40;95227.19;5061578;28;20051;-62
2022/01/30 08:14:25;;;;;;;18.95;12.60;;;;;;;1.65;50.03;95234.06;5063395;28;20048;-67
2022/01/30 08:16:51;;;;;;;20.17;12.40;;;;;;;1.53;49.98;95247.09;5059932;28;20028;-62
2022/01/30 08:19:22;;;;;;;20.48;13.13;;;;;;;1.58;49.78;95237.63;5064428;28;20031;-62
2022/01/30 08:21:48;;;;;;;18.63;12.65;;;;;;;1.51;49.82;95247.13;5062609;28;20037;-62
2022/01/30 08:24:14;;;;;;;24.63;15.07;;;;;;;1.69;49.23;95238.22;5061948;28;20031;-63
2022/01/30 08:26:40;;;;;;;21.25;12.73;;;;;;;2.11;48.92;95247.31;5045662;28;20040;-63
2022/01/30 08:29:05;;;;;;;20.15;11.52;;;;;;;2.57;46.88;95215.53;5060525;28;20025;-63
2022/01/30 08:31:30;;;;;;;20.00;11.18;;;;;;;4.96;42.22;95239.13;5045811;28;20032;-64
2022/01/30 08:33:56;;;;;;;18.67;11.30;;;;;;;7.41;37.18;95225.50;5062697;28;20113;-64
2022/01/30 08:36:21;;;;;;;17.63;10.52;;;;;;;8.81;33.81;95220.28;5063913;28;20032;-64
2022/01/30 08:38:47;;;;;;;19.10;11.95;;;;;;;9.98;30.83;95211.25;5044706;28;20044;-64
2022/01/30 08:41:12;;;;;;;21.98;12.60;;;;;;;10.84;29.68;95207.97;5064190;28;20063;-64
2022/01/30 08:43:37;;;;;;;20.08;11.73;;;;;;;10.42;29.93;95212.22;5060113;28;20420;-63
2022/01/30 08:46:03;;;;;;;19.02;11.82;;;;;;;11.37;28.82;95213.31;5064261;28;20032;-63
2022/01/30 08:48:30;;;;;;;20.77;12.77;;;;;;;12.59;27.30;95192.47;5043725;28;20072;-64
2022/01/30 08:50:56;;;;;;;23.52;13.20;;;;;;;13.16;25.63;95173.81;5064250;28;20028;-62
2022/01/30 08:53:22;;;;;;;21.45;13.00;;;;;;;14.43;24.56;95193.16;5061032;28;20442;-62
2022/01/30 08:55:47;;;;;;;19.65;13.13;;;;;;;15.16;23.45;95185.91;5064322;28;20033;-62
2022/01/30 08:58:13;;;;;;;18.65;12.95;;;;;;;13.98;24.79;95173.16;5043711;28;20159;-65
2022/01/30 09:00:41;;;;;;;21.35;13.85;;;;;;;12.31;25.95;95199.50;5044751;28;20028;-65
2022/01/30 09:03:07;;;;;;;23.05;13.50;;;;;;;10.79;28.07;95220.31;5063271;28;20113;-64
2022/01/30 09:05:34;;;;;;;18.52;13.23;;;;;;;8.95;30.49;95193.81;5040577;28;20034;-62
2022/01/30 09:08:04;;;;;;;21.95;14.05;;;;;;;8.76;31.76;95243.66;5063897;28;20031;-64
2022/01/30 09:10:30;;;;;;;24.02;14.02;;;;;;;8.52;32.10;95202.06;5060683;28;20036;-64
2022/01/30 09:12:56;;;;;;;22.40;14.35;;;;;;;10.00;30.48;95219.75;5063374;28;20412;-65
2022/01/30 09:15:21;;;;;;;29.05;15.77;;;;;;;10.74;29.60;95212.88;5061023;28;20055;-64
2022/01/30 09:17:47;;;;;;;26.05;15.80;;;;;;;11.88;27.93;95226.41;5063758;28;20032;-64
2022/01/30 09:20:12;;;;;;;31.73;17.85;;;;;;;12.11;27.03;95212.00;5059488;28;20039;-63
2022/01/30 09:22:39;;;;;;;23.08;14.88;;;;;;;13.17;25.77;95187.63;5063977;28;20020;-62
2022/01/30 09:25:05;;;;;;;25.40;16.02;;;;;;;16.18;23.00;95196.78;5061816;28;20403;-64
2022/01/30 09:27:31;;;;;;;23.50;16.13;;;;;;;18.27;19.99;95171.91;5063658;28;20039;-66
2022/01/30 09:29:57;;;;;;;22.08;16.90;;;;;;;19.20;18.96;95169.38;5064587;28;20028;-67
2022/01/30 09:32:23;;;;;;;22.48;15.90;;;;;;;20.79;17.69;95148.66;5064422;28;20419;-63
2022/01/30 09:34:49;;;;;;;23.50;16.77;;;;;;;22.02;16.14;95136.69;5065625;28;20031;-63
2022/01/30 09:37:14;;;;;;;25.30;16.23;;;;;;;22.14;15.88;95115.38;5064903;28;20514;-63
2022/01/30 09:39:40;;;;;;;20.88;16.90;;;;;;;23.24;14.72;95136.59;5067427;28;20024;-66
2022/01/30 09:42:06;;;;;;;22.15;16.75;;;;;;;23.71;14.60;95089.28;5064479;28;20507;-66
2022/01/30 09:44:39;;;;;;;23.60;18.15;;;;;;;24.63;13.99;95130.50;5067049;28;20045;-65
2022/01/30 09:47:14;;;;;;;24.63;18.00;;;;;;;25.00;13.29;95119.03;5064024;28;20438;-65
2022/01/30 09:49:45;;;;;;;25.83;16.73;;;;;;;25.37;12.90;95100.63;5064645;28;20027;-65
2022/01/30 09:52:11;;;;;;;23.92;14.07;;;;;;;25.37;12.91;95098.81;5062911;28;20030;-66
2022/01/30 09:54:36;;;;;;;19.05;13.07;;;;;;;25.57;13.04;95108.75;5066981;28;20028;-63
2022/01/30 09:57:02;;;;;;;19.52;13.05;;;;;;;24.64;13.72;95103.97;5062034;28;20503;-64
2022/01/30 09:59:28;;;;;;;18.40;12.85;;;;;;;24.95;12.74;95080.03;5048572;28;20036;-62
2022/01/30 10:01:53;;;;;;;17.70;13.60;;;;;;;24.64;13.56;95084.69;5063804;28;20518;-65
2022/01/30 10:04:19;;;;;;;18.85;12.52;;;;;;;25.07;12.81;95084.81;5066832;28;20120;-62
2022/01/30 10:06:58;;;;;;;20.40;13.38;;;;;;;24.90;13.16;95069.19;5064472;28;20182;-67
2022/01/30 10:09:30;;;;;;;19.85;12.60;;;;;;;23.67;13.98;95073.84;5065876;28;20444;-66
2022/01/30 10:12:19;;;;;;;16.83;11.38;;;;;;;22.60;14.82;95072.78;5064089;28;20032;-64
2022/01/30 10:15:04;;;;;;;19.70;12.52;;;;;;;22.43;15.15;95061.47;5061317;28;20060;-63
2022/01/30 10:17:32;;;;;;;16.90;11.20;;;;;;;23.27;14.76;95065.25;5064523;28;20036;-62
2022/01/30 10:20:05;;;;;;;16.25;10.80;;;;;;;22.98;14.21;95083.47;5064448;28;20036;-66
2022/01/30 10:22:31;;;;;;;22.15;11.25;;;;;;;21.63;15.37;95060.44;5063073;28;20020;-65
2022/01/30 10:24:57;;;;;;;20.48;11.73;;;;;;;21.68;15.14;95076.50;5066425;28;20111;-62
2022/01/30 10:27:28;;;;;;;21.92;13.10;;;;;;;21.38;15.11;95078.72;5064719;28;20024;-62
2022/01/30 10:30:06;;;;;;;21.42;13.15;;;;;;;20.31;15.77;95062.59;5064068;28;20055;-63
2022/01/30 10:32:33;;;;;;;25.13;12.70;;;;;;;22.25;14.72;95073.00;5065440;28;20584;-66
2022/01/30 10:35:03;;;;;;;23.45;13.02;;;;;;;24.58;13.62;95047.53;5060569;28;20024;-67
2022/01/30 10:37:29;;;;;;;17.85;14.02;;;;;;;25.20;12.11;95020.84;5066107;28;20043;-66
2022/01/30 10:40:06;;;;;;;28.10;13.90;;;;;;;26.00;11.92;95043.53;5062583;28;20028;-68
2022/01/30 10:42:50;;;;;;;16.75;13.82;;;;;;;27.05;11.85;95032.94;5065697;28;20029;-64
2022/01/30 10:45:18;;;;;;;22.65;14.43;;;;;;;26.10;11.81;95029.19;5063252;28;20036;-64
2022/01/30 10:47:45;;;;;;;21.13;14.05;;;;;;;26.68;11.61;95003.31;5066016;28;20040;-66
2022/01/30 10:50:22;;;;;;;23.58;16.27;;;;;;;27.42;11.43;94985.81;5061242;28;20044;-66
2022/01/30 10:52:58;;;;;;;24.40;14.32;;;;;;;28.27;11.13;94990.50;5063475;28;20024;-66
2022/01/30 10:55:32;;;;;;;18.63;14.05;;;;;;;28.52;10.27;95005.72;5061591;28;20040;-65
2022/01/30 10:58:00;;;;;;;21.25;13.50;;;;;;;27.76;10.27;94940.78;5065551;28;20051;-66
2022/01/30 11:00:46;;;;;;;21.58;12.88;;;;;;;27.40;10.82;95013.50;5059970;28;20106;-65
2022/01/30 11:03:35;;;;;;;17.10;11.50;;;;;;;23.21;12.81;95017.78;5061464;28;20196;-66
2022/01/30 11:06:01;;;;;;;21.40;14.93;;;;;;;23.98;13.02;94975.50;5062833;28;20037;-66
2022/01/30 11:08:32;;;;;;;21.45;13.88;;;;;;;24.99;12.36;95003.16;5065458;28;20038;-65
2022/01/30 11:11:32;;;;;;;22.80;13.98;;;;;;;26.08;11.86;94986.31;5063075;28;20170;-64
2022/01/30 11:19:16;;;;;;;25.77;12.77;;;;;;;28.07;10.33;94920.81;5063995;28;20039;-66
2022/01/30 11:21:43;;;;;;;20.50;13.25;;;;;;;27.26;10.71;94955.22;5043904;28;20033;-66
2022/01/30 11:24:10;;;;;;;20.58;13.52;;;;;;;28.04;10.98;94930.00;5064992;28;20060;-66
2022/01/30 11:26:36;;;;;;;19.75;13.25;;;;;;;28.27;10.61;94952.56;5060754;28;20170;-66
2022/01/30 11:29:02;;;;;;;24.15;16.38;;;;;;;23.79;12.73;94889.13;5046783;28;20041;-65
2022/01/30 11:31:28;;;;;;;21.92;14.25;;;;;;;21.08;15.20;94970.84;5062047;28;20036;-65
2022/01/30 11:33:55;;;;;;;28.00;15.77;;;;;;;19.05;17.12;94979.13;5064294;28;20110;-64
2022/01/30 11:36:24;;;;;;;21.90;13.77;;;;;;;18.55;17.19;94984.78;5062224;28;20028;-68
2022/01/30 11:38:49;;;;;;;21.95;13.60;;;;;;;21.06;15.57;94966.75;5064574;28;20034;-65
2022/01/30 11:41:19;;;;;;;21.67;14.77;;;;;;;21.09;15.51;94964.63;5063069;28;20032;-65
2022/01/30 11:44:19;;;;;;;19.37;13.87;;;;;;;19.83;16.30;94959.28;5062971;28;20114;-64
2022/01/30 11:46:58;;;;;;;23.73;15.15;;;;;;;19.68;16.42;94942.47;5062639;28;20116;-64
2022/01/30 11:49:36;;;;;;;28.98;16.83;;;;;;;19.83;16.13;94931.31;5062787;28;20677;-66
2022/01/30 11:52:02;;;;;;;26.02;15.45;;;;;;;19.70;16.60;94924.84;5061382;28;20025;-65
2022/01/30 11:54:41;;;;;;;28.15;15.88;;;;;;;21.37;15.30;94921.53;5064780;28;20020;-65
2022/01/30 11:57:22;;;;;;;27.85;16.50;;;;;;;24.35;13.23;94907.09;5059799;28;20067;-62
2022/01/30 11:59:51;;;;;;;20.50;15.40;;;;;;;26.21;12.16;94905.25;5059111;28;20055;-62
2022/01/30 12:02:27;;;;;;;28.48;17.75;;;;;;;27.60;11.25;94883.78;5061921;28;20050;-62
2022/01/30 12:04:58;;;;;;;26.20;15.00;;;;;;;27.84;11.39;94901.69;5062863;28;20036;-58
2022/01/30 12:07:36;;;;;;;21.70;14.05;;;;;;;24.24;12.94;94892.59;5062244;28;20025;-66
2022/01/30 12:10:20;;;;;;;28.02;19.75;;;;;;;21.25;15.05;94923.66;5062443;28;20116;-63
2022/01/30 12:12:48;;;;;;;26.67;15.27;;;;;;;19.44;16.45;94921.25;5061779;28;20832;-67
2022/01/30 12:15:32;;;;;;;25.52;15.95;;;;;;;18.07;17.61;94931.88;5063206;28;20032;-64
2022/01/30 12:17:58;;;;;;;24.30;16.17;;;;;;;16.28;19.78;94903.69;5062363;28;20509;-63
2022/01/30 12:20:24;;;;;;;26.23;16.35;;;;;;;14.78;21.49;94925.75;5062419;28;20024;-68
2022/01/30 12:22:51;;;;;;;28.83;16.90;;;;;;;13.83;23.27;94915.13;5064512;28;20024;-68
2022/01/30 12:25:21;;;;;;;22.45;13.80;;;;;;;12.11;24.45;94922.50;5044842;28;20129;-68
2022/01/30 12:27:54;;;;;;;28.10;14.88;;;;;;;11.73;25.24;94907.88;5064199;28;20020;-65
2022/01/30 12:30:33;;;;;;;23.90;15.05;;;;;;;11.38;25.80;94905.97;5058196;28;20036;-66